FW8580 Weather Reports


time (UTC)temp
F
wind
direction
speed
knots
gust
knots
rain 1hr
in
rain 24hr
in
rain mn
in
humidity
%
barometer
mb
20260510161503 70 245 0.0 0.9 0.00 0.00 0.00 53 1017.5
20260510160000 67 20 0.0 7.0 0.00 0.00 0.00 59 1017.5
20260510154500 67 200 0.0 7.0 0.00 0.00 0.00 59 1017.6
20260510153006 66 313 0.9 3.5 0.00 0.00 0.00 59 1017.6
20260510151501 65 4 0.9 7.8 0.00 0.00 0.00 60 1017.5
20260510150003 64 73 3.5 9.6 0.00 0.00 0.00 59 1017.5
20260510143002 63 257 2.6 8.7 0.00 0.00 0.00 62 1017.4
20260510140016 62 244 0.0 3.5 0.00 0.00 0.00 65 1017.4
20260510133008 60 253 0.9 4.3 0.00 0.00 0.00 66 1017.3
20260510131458 60 193 0.0 3.5 0.00 0.00 0.00 67 1017.2
20260510130002 60 213 0.9 4.3 0.00 0.00 0.00 68 1017.0
20260510124503 59 234 0.9 5.2 0.00 0.00 0.00 68 1016.8
20260510122959 58 322 1.7 7.0 0.00 0.00 0.00 70 1016.6
20260510121500 57 220 0.0 2.6 0.00 0.00 0.00 71 1016.5
20260510120008 56 108 0.0 3.5 0.00 0.00 0.00 73 1016.4
20260510114500 55 175 0.0 3.5 0.00 0.00 0.00 74 1016.2
20260510113010 55 232 0.0 0.9 0.00 0.00 0.00 75 1016.1
20260510111459 54 232 0.0 0.9 0.00 0.00 0.00 75 1015.8
20260510110003 55 147 0.0 1.7 0.00 0.00 0.00 73 1015.6
20260510104502 56 248 0.0 6.1 0.00 0.00 0.00 70 1015.3
20260510095959 56 8 0.9 3.5 0.00 0.00 0.00 66 1014.8
20260510094502 55 215 0.0 3.5 0.00 0.00 0.00 67 1014.9
20260510093000 56 205 0.0 7.0 0.00 0.00 0.00 64 1014.7
20260510091458 56 323 0.9 5.2 0.00 0.00 0.00 66 1014.6
20260510090016 55 193 0.0 4.3 0.00 0.00 0.00 68 1014.2
20260510084500 55 226 0.0 4.3 0.00 0.00 0.00 73 1014.1
20260510083005 54 32 0.0 1.7 0.00 0.00 0.00 78 1013.9
20260510081458 54 78 0.0 3.5 0.00 0.00 0.00 79 1013.9
20260510080001 54 19 0.0 1.7 0.00 0.00 0.00 80 1013.8
20260510074500 54 105 0.0 1.7 0.00 0.00 0.00 79 1013.4
20260510064501 55 89 0.0 0.9 0.00 0.00 0.00 76 1013.5
20260510063004 55 219 0.0 0.9 0.00 0.00 0.00 76 1013.6
20260510060006 55 202 0.0 2.6 0.00 0.00 0.00 75 1013.8
20260510054458 55 357 0.0 0.9 0.00 0.00 0.00 74 1013.8
20260510050002 56 223 0.0 0.9 0.00 0.00 0.00 72 1014.0
20260510044500 56 101 0.0 0.0 0.00 0.00 0.00 72 1014.1
20260510043001 56 161 0.0 0.9 0.00 0.00 0.00 72 1014.0
20260510040001 56 210 0.0 0.9 0.00 0.00 0.00 71 1014.0
20260510033112 57 219 0.0 0.9 0.00 0.00 0.00 69 1014.0
20260510031459 57 304 0.0 1.7 0.00 0.00 0.00 67 1013.9
20260510030007 57 217 0.0 0.9 0.00 0.00 0.00 68 1013.8
20260510023000 58 228 0.0 0.9 0.00 0.00 0.00 67 1013.5
20260510021500 58 53 0.0 0.9 0.00 0.00 0.00 66 1013.4
20260510020000 58 227 0.0 0.9 0.00 0.00 0.00 66 1013.3
20260510014459 58 255 0.0 0.9 0.00 0.00 0.00 65 1013.0
20260510013000 58 219 0.0 0.0 0.00 0.00 0.00 65 1012.7
20260510011459 58 219 0.0 1.7 0.00 0.00 0.00 64 1012.4
20260510010002 59 16 0.0 1.7 0.00 0.00 0.00 62 1012.4
20260510004503 60 151 0.0 0.0 0.00 0.00 0.00 60 1012.3
20260510003010 61 1 0.0 0.9 0.00 0.00 0.00 58 1012.2
20260509234500 64 284 0.9 5.2 0.00 0.00 0.00 52 1011.6
20260509233003 65 328 0.0 4.3 0.00 0.00 0.00 52 1011.5
20260509231501 65 202 0.9 5.2 0.00 0.00 0.00 53 1011.4
20260509224500 67 316 0.0 5.2 0.00 0.00 0.00 49 1011.1
20260509223000 68 318 0.0 7.0 0.00 0.00 0.00 49 1011.3
20260509221458 71 330 0.9 4.3 0.00 0.00 0.00 47 1011.3
20260509220003 71 340 0.9 2.6 0.00 0.00 0.00 48 1011.2
20260509214459 69 32 0.0 6.1 0.00 0.00 0.00 49 1011.1
20260509213000 72 59 0.0 5.2 0.00 0.00 0.00 46 1010.9
20260509211459 72 14 0.0 1.7 0.00 0.00 0.00 45 1010.7
20260509210001 71 183 0.0 1.7 0.00 0.00 0.00 44 1010.6
20260509204458 71 8 0.0 1.7 0.00 0.00 0.00 45 1010.6
20260509203002 71 108 0.0 1.7 0.00 0.00 0.00 44 1010.5
20260509201500 71 200 0.0 4.3 0.00 0.00 0.00 46 1010.3
20260509195958 68 223 0.0 3.5 0.00 0.00 0.00 50 1010.3
20260509194459 69 127 0.0 1.7 0.00 0.00 0.00 49 1010.4
20260509193000 70 243 0.0 1.7 0.00 0.00 0.00 51 1010.3
20260509191500 71 316 0.0 0.9 0.00 0.00 0.00 50 1010.4
20260509185958 70 13 0.0 1.7 0.00 0.00 0.00 50 1010.5
20260509184500 70 319 0.9 3.5 0.00 0.00 0.00 48 1010.5
20260509182959 67 20 0.0 4.3 0.00 0.00 0.00 53 1010.8
20260509181459 68 229 0.0 1.7 0.00 0.00 0.00 50 1011.0
20260509180002 67 320 0.0 1.7 0.00 0.00 0.00 56 1011.0
20260509174500 63 158 0.0 0.9 0.00 0.00 0.00 61 1011.4
20260509173003 64 260 0.0 1.7 0.00 0.00 0.00 58 1011.3
20260509171459 64 5 0.0 6.1 0.00 0.00 0.00 63 1011.4
20260509164503 63 241 0.0 1.7 0.00 0.00 0.00 69 1011.5
20260509163000 63 241 0.0 1.7 0.00 0.00 0.00 69 1011.5